< < Back
Terminal Aerodrome Forecast


Current Version              Previous Versions:   1  2  3  4  5  6  7  8  9  

Terminal Aerodrome Forecast

683
FTUS44 KMRX 232322
TAFTYS
TAF
KTYS 232322Z 2400/2424 04004KT P6SM SKC
     FM241800 23009KT P6SM FEW040 SCT250=

Latest METAR

376
SAUS80 KWBC 250100 RRB
MTRTYS
METAR KTYS 250053Z 16003KT 10SM BKN250 21/03 A2988 RMK AO2 SLP113
T02060033


USA.gov is the U.S. government's official web portal to all federal, state and local government web resources and services.